createdAt,value
2022-12-07T00:00:04.593Z,98027.00
2022-12-07T00:00:14.397Z,98027.00
2022-12-07T00:00:24.394Z,98027.00
2022-12-07T00:00:34.398Z,98025.00
2022-12-07T00:00:44.400Z,98029.00
2022-12-07T00:00:54.404Z,98027.00
2022-12-07T00:01:04.411Z,98027.00
2022-12-07T00:01:14.424Z,98029.00
2022-12-07T00:01:24.453Z,98025.00
2022-12-07T00:01:34.454Z,98027.00
2022-12-07T00:01:44.645Z,98027.00
2022-12-07T00:01:54.750Z,98023.00
2022-12-07T00:02:04.808Z,98027.00
2022-12-07T00:02:14.898Z,98025.00
2022-12-07T00:02:24.886Z,98027.00
2022-12-07T00:02:35.175Z,98027.00
2022-12-07T00:02:45.079Z,98027.00
2022-12-07T00:02:55.135Z,98027.00
2022-12-07T00:03:05.232Z,98025.00
2022-12-07T00:03:15.177Z,98027.00
2022-12-07T00:03:25.231Z,98025.00
2022-12-07T00:03:35.419Z,98027.00
2022-12-07T00:03:45.473Z,98021.00
2022-12-07T00:03:55.491Z,98023.00
2022-12-07T00:04:05.867Z,98023.00
2022-12-07T00:04:15.820Z,98023.00
2022-12-07T00:04:25.825Z,98023.00
2022-12-07T00:04:35.824Z,98023.00
2022-12-07T00:04:46.201Z,98023.00
2022-12-07T00:04:56.219Z,98023.00
2022-12-07T00:05:06.260Z,98021.00
2022-12-07T00:05:16.285Z,98021.00
2022-12-07T00:05:26.289Z,98025.00
2022-12-07T00:05:36.294Z,98023.00
2022-12-07T00:05:46.294Z,98023.00
2022-12-07T00:05:56.301Z,98021.00
2022-12-07T00:06:06.439Z,98019.00
2022-12-07T00:06:16.440Z,98021.00
2022-12-07T00:06:26.741Z,98023.00
2022-12-07T00:06:36.741Z,98021.00
2022-12-07T00:06:46.762Z,98019.00
2022-12-07T00:06:56.761Z,98019.00
2022-12-07T00:07:06.774Z,98023.00
2022-12-07T00:07:16.781Z,98019.00
2022-12-07T00:07:28.071Z,98019.00
2022-12-07T00:07:36.909Z,98021.00
2022-12-07T00:07:47.071Z,98019.00
2022-12-07T00:07:57.185Z,98019.00
2022-12-07T00:08:07.147Z,98021.00
2022-12-07T00:08:17.487Z,98021.00
2022-12-07T00:08:27.509Z,98021.00
2022-12-07T00:08:37.512Z,98021.00
2022-12-07T00:08:47.518Z,98023.00
2022-12-07T00:08:57.523Z,98023.00
2022-12-07T00:09:07.531Z,98021.00
2022-12-07T00:09:17.556Z,98023.00
2022-12-07T00:09:27.543Z,98019.00
2022-12-07T00:09:37.546Z,98021.00
2022-12-07T00:09:47.546Z,98019.00
2022-12-07T00:09:57.554Z,98021.00
2022-12-07T00:10:07.556Z,98021.00
2022-12-07T00:10:17.560Z,98021.00
2022-12-07T00:10:27.585Z,98021.00
2022-12-07T00:10:37.594Z,98021.00
2022-12-07T00:10:47.599Z,98021.00
2022-12-07T00:10:57.599Z,98021.00
2022-12-07T00:11:07.620Z,98019.00
2022-12-07T00:11:17.624Z,98023.00
2022-12-07T00:11:27.631Z,98019.00
2022-12-07T00:11:37.644Z,98021.00
2022-12-07T00:11:47.658Z,98017.00
2022-12-07T00:11:57.719Z,98019.00
2022-12-07T00:12:07.738Z,98019.00
2022-12-07T00:12:17.740Z,98019.00
2022-12-07T00:12:27.866Z,98019.00
2022-12-07T00:12:37.879Z,98019.00
2022-12-07T00:12:47.879Z,98019.00
2022-12-07T00:12:57.886Z,98019.00
2022-12-07T00:13:07.903Z,98021.00
2022-12-07T00:13:17.913Z,98019.00
2022-12-07T00:13:28.177Z,98019.00
2022-12-07T00:13:38.201Z,98019.00
2022-12-07T00:13:48.197Z,98019.00
2022-12-07T00:13:58.201Z,98017.00
2022-12-07T00:14:08.287Z,98017.00
2022-12-07T00:14:18.285Z,98017.00
2022-12-07T00:14:28.290Z,98017.00
2022-12-07T00:14:38.320Z,98019.00
2022-12-07T00:14:48.336Z,98017.00
2022-12-07T00:14:58.337Z,98017.00
2022-12-07T00:15:08.716Z,98019.00
2022-12-07T00:15:18.716Z,98019.00
2022-12-07T00:15:28.840Z,98019.00
2022-12-07T00:15:39.098Z,98017.00
2022-12-07T00:15:49.109Z,98019.00
2022-12-07T00:15:59.121Z,98017.00
2022-12-07T00:16:09.292Z,98017.00
2022-12-07T00:16:19.249Z,98015.00
2022-12-07T00:16:29.299Z,98015.00
2022-12-07T00:16:39.319Z,98017.00
2022-12-07T00:16:49.418Z,98017.00
2022-12-07T00:16:59.558Z,98015.00
2022-12-07T00:17:09.473Z,98017.00
2022-12-07T00:17:19.478Z,98017.00
2022-12-07T00:17:29.489Z,98013.00
2022-12-07T00:17:39.499Z,98013.00
2022-12-07T00:17:49.507Z,98013.00
2022-12-07T00:17:59.518Z,98013.00
2022-12-07T00:18:09.640Z,98015.00
2022-12-07T00:18:19.643Z,98013.00
2022-12-07T00:18:29.897Z,98015.00
2022-12-07T00:18:39.896Z,98015.00
2022-12-07T00:18:49.925Z,98013.00
2022-12-07T00:18:59.945Z,98013.00
2022-12-07T00:19:09.962Z,98015.00
2022-12-07T00:19:19.981Z,98015.00
2022-12-07T00:19:29.979Z,98013.00
2022-12-07T00:19:39.990Z,98015.00
2022-12-07T00:19:50.001Z,98015.00
2022-12-07T00:20:00.297Z,98015.00
2022-12-07T00:20:10.364Z,98015.00
2022-12-07T00:20:20.363Z,98013.00
2022-12-07T00:20:30.367Z,98013.00
2022-12-07T00:20:40.377Z,98015.00
2022-12-07T00:20:50.388Z,98017.00
2022-12-07T00:21:00.400Z,98013.00
2022-12-07T00:21:10.419Z,98011.00
2022-12-07T00:21:20.449Z,98013.00
2022-12-07T00:21:30.460Z,98015.00
2022-12-07T00:21:40.444Z,98015.00
2022-12-07T00:21:50.474Z,98013.00
2022-12-07T00:22:00.500Z,98013.00
2022-12-07T00:22:10.499Z,98015.00
2022-12-07T00:22:20.504Z,98015.00
2022-12-07T00:22:30.514Z,98015.00
2022-12-07T00:22:40.539Z,98015.00
2022-12-07T00:22:50.638Z,98015.00
2022-12-07T00:23:00.892Z,98013.00
2022-12-07T00:23:10.895Z,98013.00
2022-12-07T00:23:20.899Z,98015.00
2022-12-07T00:23:30.911Z,98017.00
2022-12-07T00:23:40.927Z,98015.00
2022-12-07T00:23:50.930Z,98013.00
2022-12-07T00:24:00.943Z,98015.00
2022-12-07T00:24:10.960Z,98013.00
2022-12-07T00:24:20.965Z,98013.00
2022-12-07T00:24:30.969Z,98015.00
2022-12-07T00:24:41.013Z,98013.00
2022-12-07T00:24:51.033Z,98013.00
2022-12-07T00:25:01.035Z,98015.00
2022-12-07T00:25:11.046Z,98015.00
2022-12-07T00:25:21.070Z,98015.00
2022-12-07T00:25:31.069Z,98013.00
2022-12-07T00:25:41.080Z,98013.00
2022-12-07T00:25:51.071Z,98013.00
2022-12-07T00:26:01.099Z,98013.00
2022-12-07T00:26:11.110Z,98011.00
2022-12-07T00:26:21.116Z,98013.00
2022-12-07T00:26:31.128Z,98013.00
2022-12-07T00:26:41.138Z,98013.00
2022-12-07T00:26:51.147Z,98011.00
2022-12-07T00:27:01.154Z,98013.00
2022-12-07T00:27:11.167Z,98013.00
2022-12-07T00:27:21.175Z,98013.00
2022-12-07T00:27:31.293Z,98011.00
2022-12-07T00:27:41.306Z,98011.00
2022-12-07T00:27:51.430Z,98009.00
2022-12-07T00:28:01.427Z,98013.00
2022-12-07T00:28:11.554Z,98011.00
2022-12-07T00:28:21.558Z,98009.00
2022-12-07T00:28:31.677Z,98009.00
2022-12-07T00:28:41.935Z,98009.00
2022-12-07T00:28:52.067Z,98011.00
2022-12-07T00:29:02.076Z,98011.00
2022-12-07T00:29:12.341Z,98007.00
2022-12-07T00:29:22.340Z,98007.00
2022-12-07T00:29:32.460Z,98009.00
2022-12-07T00:29:42.718Z,98007.00
2022-12-07T00:29:52.839Z,98009.00
2022-12-07T00:30:03.211Z,98007.00
2022-12-07T00:30:13.146Z,98011.00
2022-12-07T00:30:23.152Z,98009.00
2022-12-07T00:30:33.275Z,98007.00
2022-12-07T00:30:43.544Z,98007.00
2022-12-07T00:30:53.546Z,98011.00
2022-12-07T00:31:03.561Z,98009.00
2022-12-07T00:31:13.568Z,98007.00
2022-12-07T00:31:23.695Z,98009.00
2022-12-07T00:31:33.769Z,98009.00
2022-12-07T00:31:43.847Z,98009.00
2022-12-07T00:31:53.958Z,98009.00
2022-12-07T00:32:03.958Z,98009.00
2022-12-07T00:32:14.061Z,98009.00
2022-12-07T00:32:24.224Z,98007.00
2022-12-07T00:32:34.343Z,98009.00
2022-12-07T00:32:44.356Z,98009.00
2022-12-07T00:32:54.627Z,98009.00
2022-12-07T00:33:04.635Z,98007.00
2022-12-07T00:33:14.653Z,98009.00
2022-12-07T00:33:24.637Z,98009.00
2022-12-07T00:33:34.645Z,98009.00
2022-12-07T00:33:44.656Z,98009.00
2022-12-07T00:33:54.666Z,98009.00
2022-12-07T00:34:04.676Z,98011.00
2022-12-07T00:34:14.681Z,98009.00
2022-12-07T00:34:24.693Z,98011.00
2022-12-07T00:34:34.703Z,98009.00
2022-12-07T00:34:44.715Z,98009.00
2022-12-07T00:34:54.840Z,98009.00
2022-12-07T00:35:04.843Z,98009.00
2022-12-07T00:35:14.963Z,98009.00
2022-12-07T00:35:24.961Z,98011.00
2022-12-07T00:35:35.081Z,98011.00
2022-12-07T00:35:45.087Z,98011.00
2022-12-07T00:35:55.109Z,98009.00
2022-12-07T00:36:05.110Z,98011.00
2022-12-07T00:36:15.108Z,98009.00
2022-12-07T00:36:27.153Z,98011.00
2022-12-07T00:36:35.223Z,98011.00
2022-12-07T00:36:45.234Z,98011.00
2022-12-07T00:36:55.374Z,98009.00
2022-12-07T00:37:05.379Z,98011.00
2022-12-07T00:37:15.379Z,98009.00
2022-12-07T00:37:25.386Z,98009.00
2022-12-07T00:37:35.399Z,98009.00
2022-12-07T00:37:45.424Z,98009.00
2022-12-07T00:37:55.401Z,98007.00
2022-12-07T00:38:05.411Z,98009.00
2022-12-07T00:38:15.421Z,98011.00
2022-12-07T00:38:25.431Z,98007.00
2022-12-07T00:38:35.444Z,98009.00
2022-12-07T00:38:45.453Z,98007.00
2022-12-07T00:38:55.477Z,98011.00
2022-12-07T00:39:05.470Z,98007.00
2022-12-07T00:39:15.478Z,98007.00
2022-12-07T00:39:25.492Z,98009.00
2022-12-07T00:39:35.501Z,98007.00
2022-12-07T00:39:45.535Z,98007.00
2022-12-07T00:39:55.519Z,98009.00
2022-12-07T00:40:05.639Z,98007.00
2022-12-07T00:40:15.675Z,98007.00
2022-12-07T00:40:25.682Z,98007.00
2022-12-07T00:40:35.682Z,98007.00
2022-12-07T00:40:45.687Z,98005.00
2022-12-07T00:40:55.945Z,98009.00
2022-12-07T00:41:05.960Z,98007.00
2022-12-07T00:41:15.957Z,98007.00
2022-12-07T00:41:26.339Z,98005.00
2022-12-07T00:41:36.336Z,98007.00
2022-12-07T00:41:46.456Z,98005.00
2022-12-07T00:41:56.717Z,98005.00
2022-12-07T00:42:06.718Z,98009.00
2022-12-07T00:42:16.718Z,98007.00
2022-12-07T00:42:26.717Z,98007.00
2022-12-07T00:42:36.769Z,98007.00
2022-12-07T00:42:46.765Z,98007.00
2022-12-07T00:42:56.768Z,98007.00
2022-12-07T00:43:06.777Z,98007.00
2022-12-07T00:43:16.784Z,98007.00
2022-12-07T00:43:26.794Z,98007.00
2022-12-07T00:43:36.799Z,98005.00
2022-12-07T00:43:46.820Z,98007.00
2022-12-07T00:43:56.824Z,98005.00
2022-12-07T00:44:06.843Z,98005.00
2022-12-07T00:44:16.848Z,98005.00
2022-12-07T00:44:26.892Z,98005.00
2022-12-07T00:44:36.922Z,98005.00
2022-12-07T00:44:46.909Z,98009.00
2022-12-07T00:44:56.918Z,98009.00
2022-12-07T00:45:07.037Z,98009.00
2022-12-07T00:45:17.055Z,98005.00
2022-12-07T00:45:27.128Z,98005.00
2022-12-07T00:45:37.143Z,98007.00
2022-12-07T00:45:47.186Z,98007.00
2022-12-07T00:45:57.561Z,98007.00
2022-12-07T00:46:07.626Z,98005.00
2022-12-07T00:46:17.710Z,98007.00
2022-12-07T00:46:28.102Z,98005.00
2022-12-07T00:46:38.032Z,98007.00
2022-12-07T00:46:48.037Z,98007.00
2022-12-07T00:46:58.039Z,98005.00
2022-12-07T00:47:08.162Z,98007.00
2022-12-07T00:47:18.179Z,98005.00
2022-12-07T00:47:28.246Z,98003.00
2022-12-07T00:47:38.277Z,98007.00
2022-12-07T00:47:48.302Z,98007.00
2022-12-07T00:47:58.309Z,98005.00
2022-12-07T00:48:08.562Z,98001.00
2022-12-07T00:48:18.560Z,98005.00
2022-12-07T00:48:28.563Z,98003.00
2022-12-07T00:48:38.566Z,98003.00
2022-12-07T00:48:48.686Z,98001.00
2022-12-07T00:48:58.695Z,98005.00
2022-12-07T00:49:08.810Z,98001.00
2022-12-07T00:49:18.818Z,98003.00
2022-12-07T00:49:28.944Z,98003.00
2022-12-07T00:49:38.946Z,98001.00
2022-12-07T00:49:48.941Z,98003.00
2022-12-07T00:49:59.297Z,98007.00
2022-12-07T00:50:08.994Z,98003.00
2022-12-07T00:50:19.000Z,98003.00
2022-12-07T00:50:29.021Z,98001.00
2022-12-07T00:50:39.020Z,98001.00
2022-12-07T00:50:49.040Z,98001.00
2022-12-07T00:50:59.045Z,98001.00
2022-12-07T00:51:09.049Z,98005.00
2022-12-07T00:51:19.057Z,98001.00
2022-12-07T00:51:29.069Z,98001.00
2022-12-07T00:51:39.088Z,98003.00
2022-12-07T00:51:49.095Z,98001.00
2022-12-07T00:51:59.096Z,98001.00
2022-12-07T00:52:09.129Z,98001.00
2022-12-07T00:52:19.131Z,98001.00
2022-12-07T00:52:29.140Z,98001.00
2022-12-07T00:52:39.135Z,98001.00
2022-12-07T00:52:49.180Z,97999.00
2022-12-07T00:52:59.159Z,97999.00
2022-12-07T00:53:09.199Z,98001.00
2022-12-07T00:53:19.182Z,97999.00
2022-12-07T00:53:29.306Z,97999.00
2022-12-07T00:53:41.640Z,98001.00
2022-12-07T00:53:49.322Z,97999.00
2022-12-07T00:53:59.325Z,97999.00
2022-12-07T00:54:09.335Z,97999.00
2022-12-07T00:54:19.362Z,98001.00
2022-12-07T00:54:29.354Z,97999.00
2022-12-07T00:54:39.354Z,97997.00
2022-12-07T00:54:49.504Z,97999.00
2022-12-07T00:54:59.512Z,97999.00
2022-12-07T00:55:09.708Z,97999.00
2022-12-07T00:55:19.940Z,97997.00
2022-12-07T00:55:29.944Z,97997.00
2022-12-07T00:55:39.951Z,97997.00
2022-12-07T00:55:49.945Z,97997.00
2022-12-07T00:55:59.982Z,97997.00
2022-12-07T00:56:09.985Z,97997.00
2022-12-07T00:56:19.990Z,97997.00
2022-12-07T00:56:30.021Z,97997.00
2022-12-07T00:56:40.015Z,98001.00
2022-12-07T00:56:50.026Z,97999.00
2022-12-07T00:57:00.034Z,97997.00
2022-12-07T00:57:10.041Z,97999.00
2022-12-07T00:57:20.054Z,97999.00
2022-12-07T00:57:30.061Z,97999.00
2022-12-07T00:57:40.071Z,97997.00
2022-12-07T00:57:50.087Z,97997.00
2022-12-07T00:58:00.093Z,97997.00
2022-12-07T00:58:10.173Z,97999.00
2022-12-07T00:58:20.176Z,97997.00
2022-12-07T00:58:30.305Z,97999.00
2022-12-07T00:58:40.310Z,97997.00
2022-12-07T00:58:50.310Z,97999.00
2022-12-07T00:59:00.312Z,98001.00
2022-12-07T00:59:10.327Z,97999.00
2022-12-07T00:59:20.593Z,97999.00
2022-12-07T00:59:30.602Z,98001.00
2022-12-07T00:59:40.595Z,97995.00
2022-12-07T00:59:50.972Z,98001.00
2022-12-07T01:00:01.219Z,97997.00
2022-12-07T01:00:11.100Z,97999.00
2022-12-07T01:00:21.359Z,97999.00
2022-12-07T01:00:31.367Z,98001.00
2022-12-07T01:00:41.375Z,97997.00
2022-12-07T01:00:51.376Z,97999.00
2022-12-07T01:01:01.449Z,97997.00
2022-12-07T01:01:11.593Z,97997.00
2022-12-07T01:01:21.593Z,97997.00
2022-12-07T01:01:31.554Z,98001.00
2022-12-07T01:01:41.685Z,97997.00
2022-12-07T01:01:51.608Z,98001.00
2022-12-07T01:02:01.631Z,97999.00
2022-12-07T01:02:11.638Z,97995.00
2022-12-07T01:02:21.663Z,97995.00
2022-12-07T01:02:31.694Z,97999.00
2022-12-07T01:02:41.701Z,97999.00
2022-12-07T01:02:51.761Z,97999.00
2022-12-07T01:03:01.833Z,97999.00
2022-12-07T01:03:11.854Z,97997.00
2022-12-07T01:03:21.898Z,97999.00
2022-12-07T01:03:31.819Z,97997.00
2022-12-07T01:03:41.992Z,97995.00
2022-12-07T01:03:51.950Z,97997.00
2022-12-07T01:04:01.952Z,97999.00
2022-12-07T01:04:12.067Z,97997.00
2022-12-07T01:04:22.327Z,97997.00
2022-12-07T01:04:32.333Z,97995.00
2022-12-07T01:04:42.334Z,97997.00
2022-12-07T01:04:52.339Z,97997.00
2022-12-07T01:05:02.350Z,97999.00
2022-12-07T01:05:12.473Z,97997.00
2022-12-07T01:05:22.471Z,97997.00
2022-12-07T01:05:32.484Z,97997.00
2022-12-07T01:05:42.485Z,97997.00
2022-12-07T01:05:52.727Z,97999.00
2022-12-07T01:06:02.751Z,97999.00
2022-12-07T01:06:12.882Z,97997.00
2022-12-07T01:06:22.900Z,97997.00
2022-12-07T01:06:33.162Z,97997.00
2022-12-07T01:06:43.173Z,97997.00
2022-12-07T01:06:53.175Z,97997.00
2022-12-07T01:07:03.186Z,97999.00
2022-12-07T01:07:13.183Z,97999.00
2022-12-07T01:07:23.177Z,97999.00
2022-12-07T01:07:33.306Z,97999.00
2022-12-07T01:07:43.385Z,97997.00
2022-12-07T01:07:53.473Z,97997.00
2022-12-07T01:08:03.569Z,97995.00
2022-12-07T01:08:13.917Z,97997.00
2022-12-07T01:08:24.013Z,97995.00
2022-12-07T01:08:34.002Z,97997.00
2022-12-07T01:08:44.262Z,97997.00
2022-12-07T01:08:54.391Z,97995.00
2022-12-07T01:09:04.404Z,97997.00
2022-12-07T01:09:14.670Z,97997.00
2022-12-07T01:09:24.681Z,97997.00
2022-12-07T01:09:34.684Z,97995.00
2022-12-07T01:09:44.781Z,97995.00
2022-12-07T01:09:54.783Z,97997.00
2022-12-07T01:10:04.993Z,97997.00
2022-12-07T01:10:14.891Z,97997.00
2022-12-07T01:10:24.897Z,97997.00
2022-12-07T01:10:34.907Z,97995.00
2022-12-07T01:10:44.913Z,97997.00
2022-12-07T01:10:55.270Z,98001.00
2022-12-07T01:11:05.275Z,97997.00
2022-12-07T01:11:15.396Z,97997.00
2022-12-07T01:11:25.667Z,97999.00
2022-12-07T01:11:35.659Z,97999.00
2022-12-07T01:11:45.673Z,97999.00
2022-12-07T01:11:55.697Z,97997.00
2022-12-07T01:12:05.708Z,97999.00
2022-12-07T01:12:15.711Z,98001.00
2022-12-07T01:12:25.724Z,98001.00
2022-12-07T01:12:35.730Z,98001.00
2022-12-07T01:12:45.729Z,98001.00
2022-12-07T01:12:55.733Z,97999.00
2022-12-07T01:13:05.734Z,98003.00
2022-12-07T01:13:15.742Z,98001.00
2022-12-07T01:13:25.749Z,98001.00
2022-12-07T01:13:35.873Z,98001.00
2022-12-07T01:13:45.878Z,97999.00
2022-12-07T01:13:56.002Z,98001.00
2022-12-07T01:14:06.015Z,98001.00
2022-12-07T01:14:16.166Z,98001.00
2022-12-07T01:14:26.171Z,98001.00
2022-12-07T01:14:36.180Z,98001.00
2022-12-07T01:14:46.192Z,98001.00
2022-12-07T01:14:56.205Z,98003.00
2022-12-07T01:15:06.214Z,97999.00
2022-12-07T01:15:16.218Z,98003.00
2022-12-07T01:15:26.230Z,98003.00
2022-12-07T01:15:36.269Z,98003.00
2022-12-07T01:15:46.269Z,98001.00
2022-12-07T01:15:56.666Z,98003.00
2022-12-07T01:16:06.669Z,98003.00
2022-12-07T01:16:16.890Z,98003.00
2022-12-07T01:16:27.087Z,98003.00
2022-12-07T01:16:37.196Z,98003.00
2022-12-07T01:16:47.289Z,98003.00
2022-12-07T01:16:57.433Z,98003.00
2022-12-07T01:17:07.381Z,98003.00
2022-12-07T01:17:17.376Z,98003.00
2022-12-07T01:17:27.375Z,98003.00
2022-12-07T01:17:37.500Z,98003.00
2022-12-07T01:17:47.502Z,98003.00
2022-12-07T01:17:57.531Z,98001.00
2022-12-07T01:18:07.533Z,98001.00
2022-12-07T01:18:17.533Z,98003.00
2022-12-07T01:18:27.546Z,98001.00
2022-12-07T01:18:37.544Z,98003.00
2022-12-07T01:18:47.548Z,98005.00
2022-12-07T01:18:57.688Z,98005.00
2022-12-07T01:19:07.682Z,98005.00
2022-12-07T01:19:17.941Z,98005.00
2022-12-07T01:19:28.069Z,98001.00
2022-12-07T01:19:38.079Z,98001.00
2022-12-07T01:19:48.332Z,98001.00
2022-12-07T01:19:58.486Z,98001.00
2022-12-07T01:20:08.418Z,98001.00
2022-12-07T01:20:18.431Z,98003.00
2022-12-07T01:20:28.563Z,98001.00
2022-12-07T01:20:38.557Z,98003.00
2022-12-07T01:20:48.676Z,98003.00
2022-12-07T01:20:58.685Z,98003.00
2022-12-07T01:21:08.688Z,98003.00
2022-12-07T01:21:18.691Z,98001.00
2022-12-07T01:21:28.849Z,98003.00
2022-12-07T01:21:39.006Z,98003.00
2022-12-07T01:21:48.986Z,98001.00
2022-12-07T01:21:59.245Z,98005.00
2022-12-07T01:22:09.246Z,98005.00
2022-12-07T01:22:19.255Z,98001.00
2022-12-07T01:22:29.253Z,98005.00
2022-12-07T01:22:39.260Z,98001.00
2022-12-07T01:22:49.401Z,98001.00
2022-12-07T01:22:59.445Z,98003.00
2022-12-07T01:23:09.430Z,98001.00
2022-12-07T01:23:19.442Z,98005.00
2022-12-07T01:23:29.439Z,98003.00
2022-12-07T01:23:39.720Z,98005.00
2022-12-07T01:23:49.734Z,98003.00
2022-12-07T01:23:59.741Z,98005.00
2022-12-07T01:24:09.731Z,98001.00
2022-12-07T01:24:19.759Z,98003.00
2022-12-07T01:24:29.754Z,98003.00
2022-12-07T01:24:39.778Z,98003.00
2022-12-07T01:24:49.794Z,98003.00
2022-12-07T01:24:59.802Z,98003.00
2022-12-07T01:25:09.813Z,98003.00
2022-12-07T01:25:19.819Z,98003.00
2022-12-07T01:25:29.833Z,98003.00
2022-12-07T01:25:39.838Z,98003.00
2022-12-07T01:25:49.854Z,98007.00
2022-12-07T01:25:59.863Z,98007.00
2022-12-07T01:26:09.984Z,98007.00
2022-12-07T01:26:19.978Z,98007.00
2022-12-07T01:26:30.260Z,98005.00
2022-12-07T01:26:40.259Z,98005.00
2022-12-07T01:26:50.290Z,98005.00
2022-12-07T01:27:00.290Z,98003.00
2022-12-07T01:27:10.308Z,98005.00
2022-12-07T01:27:20.310Z,98003.00
2022-12-07T01:27:30.320Z,98003.00
2022-12-07T01:27:40.323Z,98003.00
2022-12-07T01:27:50.335Z,98005.00
2022-12-07T01:28:00.343Z,98003.00
2022-12-07T01:28:10.342Z,98005.00
2022-12-07T01:28:20.368Z,98005.00
2022-12-07T01:28:30.377Z,98003.00
2022-12-07T01:28:40.381Z,98001.00
2022-12-07T01:28:50.405Z,98005.00
2022-12-07T01:29:00.452Z,98001.00
2022-12-07T01:29:10.446Z,98005.00
2022-12-07T01:29:20.493Z,98005.00
2022-12-07T01:29:30.491Z,98001.00
2022-12-07T01:29:40.490Z,98003.00
2022-12-07T01:29:50.616Z,98005.00
2022-12-07T01:30:01.019Z,98001.00
2022-12-07T01:30:10.744Z,98003.00
2022-12-07T01:30:20.866Z,98003.00
2022-12-07T01:30:30.920Z,98003.00
2022-12-07T01:30:40.967Z,98005.00
2022-12-07T01:30:51.055Z,98003.00
2022-12-07T01:31:01.446Z,98003.00
2022-12-07T01:31:11.503Z,98001.00
2022-12-07T01:31:21.664Z,98003.00
2022-12-07T01:31:31.658Z,98001.00
2022-12-07T01:31:41.669Z,98003.00
2022-12-07T01:31:51.678Z,98005.00
2022-12-07T01:32:01.689Z,98003.00
2022-12-07T01:32:11.697Z,98005.00
2022-12-07T01:32:21.739Z,98003.00
2022-12-07T01:32:31.746Z,98003.00
2022-12-07T01:32:41.756Z,98003.00
2022-12-07T01:32:51.766Z,98003.00
2022-12-07T01:33:01.779Z,98003.00
2022-12-07T01:33:11.788Z,98007.00
2022-12-07T01:33:21.799Z,98005.00
2022-12-07T01:33:31.916Z,98005.00
2022-12-07T01:33:41.919Z,98005.00
2022-12-07T01:33:52.179Z,98005.00
2022-12-07T01:34:02.303Z,98005.00
2022-12-07T01:34:12.326Z,98005.00
2022-12-07T01:34:22.592Z,98009.00
2022-12-07T01:34:32.715Z,98005.00
2022-12-07T01:34:42.830Z,98009.00
2022-12-07T01:34:52.966Z,98007.00
2022-12-07T01:35:02.967Z,98007.00
2022-12-07T01:35:12.975Z,98005.00
2022-12-07T01:35:22.974Z,98005.00
2022-12-07T01:35:32.994Z,98005.00
2022-12-07T01:35:43.068Z,98007.00
2022-12-07T01:35:53.081Z,98007.00
2022-12-07T01:36:03.091Z,98007.00
2022-12-07T01:36:13.115Z,98007.00
2022-12-07T01:36:23.121Z,98007.00
2022-12-07T01:36:33.502Z,98005.00
2022-12-07T01:36:43.496Z,98007.00
2022-12-07T01:36:53.506Z,98007.00
2022-12-07T01:37:03.517Z,98007.00
2022-12-07T01:37:13.642Z,98007.00
2022-12-07T01:37:23.639Z,98007.00
2022-12-07T01:37:33.763Z,98009.00
2022-12-07T01:37:43.760Z,98007.00
2022-12-07T01:37:53.884Z,98005.00
2022-12-07T01:38:03.915Z,98009.00
2022-12-07T01:38:14.016Z,98009.00
2022-12-07T01:38:24.019Z,98007.00
2022-12-07T01:38:34.026Z,98007.00
2022-12-07T01:38:44.285Z,98009.00
2022-12-07T01:38:54.300Z,98007.00
2022-12-07T01:39:04.304Z,98009.00
2022-12-07T01:39:14.326Z,98009.00
2022-12-07T01:39:24.329Z,98007.00
2022-12-07T01:39:34.332Z,98007.00
2022-12-07T01:39:44.333Z,98007.00
2022-12-07T01:39:54.334Z,98007.00
2022-12-07T01:40:04.629Z,98007.00
2022-12-07T01:40:14.563Z,98005.00
2022-12-07T01:40:24.713Z,98009.00
2022-12-07T01:40:34.724Z,98009.00
2022-12-07T01:40:44.740Z,98005.00
2022-12-07T01:40:54.745Z,98009.00
2022-12-07T01:41:04.761Z,98007.00
2022-12-07T01:41:14.765Z,98007.00
2022-12-07T01:41:24.783Z,98007.00
2022-12-07T01:41:34.786Z,98005.00
2022-12-07T01:41:44.833Z,98007.00
2022-12-07T01:41:54.807Z,98007.00
2022-12-07T01:42:04.825Z,98007.00
2022-12-07T01:42:14.904Z,98007.00
2022-12-07T01:42:24.907Z,98007.00
2022-12-07T01:42:34.933Z,98005.00
2022-12-07T01:42:44.966Z,98007.00
2022-12-07T01:42:54.963Z,98007.00
2022-12-07T01:43:04.980Z,98009.00
2022-12-07T01:43:14.983Z,98007.00
2022-12-07T01:43:25.005Z,98007.00
2022-12-07T01:43:35.005Z,98007.00
2022-12-07T01:43:45.014Z,98007.00
2022-12-07T01:43:55.022Z,98007.00
2022-12-07T01:44:05.035Z,98007.00
2022-12-07T01:44:15.043Z,98007.00
2022-12-07T01:44:25.053Z,98005.00
2022-12-07T01:44:35.063Z,98007.00
2022-12-07T01:44:45.078Z,98009.00
2022-12-07T01:44:55.083Z,98007.00
2022-12-07T01:45:05.102Z,98007.00
2022-12-07T01:45:15.103Z,98005.00
2022-12-07T01:45:25.116Z,98007.00
2022-12-07T01:45:35.125Z,98009.00
2022-12-07T01:45:45.202Z,98005.00
2022-12-07T01:45:55.270Z,98003.00
2022-12-07T01:46:05.400Z,98007.00
2022-12-07T01:46:15.362Z,98007.00
2022-12-07T01:46:25.520Z,98005.00
2022-12-07T01:46:35.549Z,98003.00
2022-12-07T01:46:45.819Z,98005.00
2022-12-07T01:46:55.848Z,98005.00
2022-12-07T01:47:05.879Z,98007.00
2022-12-07T01:47:15.893Z,98009.00
2022-12-07T01:47:25.895Z,98007.00
2022-12-07T01:47:35.914Z,98007.00
2022-12-07T01:47:45.915Z,98007.00
2022-12-07T01:47:55.939Z,98007.00
2022-12-07T01:48:05.945Z,98005.00
2022-12-07T01:48:15.945Z,98007.00
2022-12-07T01:48:25.973Z,98003.00
2022-12-07T01:48:35.971Z,98005.00
2022-12-07T01:48:45.969Z,98005.00
2022-12-07T01:48:56.091Z,98007.00
2022-12-07T01:49:06.098Z,98007.00
2022-12-07T01:49:16.111Z,98007.00
2022-12-07T01:49:26.117Z,98007.00
2022-12-07T01:49:36.390Z,98007.00
2022-12-07T01:49:46.390Z,98005.00
2022-12-07T01:49:56.397Z,98005.00
2022-12-07T01:50:06.399Z,98007.00
2022-12-07T01:50:16.409Z,98007.00
2022-12-07T01:50:26.412Z,98007.00
2022-12-07T01:50:36.537Z,98007.00
2022-12-07T01:50:46.542Z,98005.00
2022-12-07T01:50:56.663Z,98005.00
2022-12-07T01:51:06.661Z,98007.00
2022-12-07T01:51:16.784Z,98007.00
2022-12-07T01:51:26.787Z,98005.00
2022-12-07T01:51:36.787Z,98005.00
2022-12-07T01:51:46.801Z,98005.00
2022-12-07T01:51:56.805Z,98007.00
2022-12-07T01:52:06.813Z,98007.00
2022-12-07T01:52:16.824Z,98007.00
2022-12-07T01:52:26.832Z,98005.00
2022-12-07T01:52:36.953Z,98007.00
2022-12-07T01:52:46.952Z,98005.00
2022-12-07T01:52:57.206Z,98003.00
2022-12-07T01:53:07.228Z,98007.00
2022-12-07T01:53:17.201Z,98007.00
2022-12-07T01:53:27.591Z,98005.00
2022-12-07T01:53:37.601Z,98009.00
2022-12-07T01:53:47.613Z,98007.00
2022-12-07T01:53:57.601Z,98007.00
2022-12-07T01:54:07.600Z,98007.00
2022-12-07T01:54:17.604Z,98009.00
2022-12-07T01:54:27.614Z,98007.00
2022-12-07T01:54:37.634Z,98007.00
2022-12-07T01:54:47.636Z,98009.00
2022-12-07T01:54:57.651Z,98007.00
2022-12-07T01:55:07.651Z,98007.00
2022-12-07T01:55:17.666Z,98005.00
2022-12-07T01:55:27.675Z,98007.00
2022-12-07T01:55:37.689Z,98007.00
2022-12-07T01:55:47.693Z,98009.00
2022-12-07T01:55:57.709Z,98007.00
2022-12-07T01:56:07.711Z,98009.00
2022-12-07T01:56:17.730Z,98007.00
2022-12-07T01:56:27.733Z,98007.00
2022-12-07T01:56:37.750Z,98007.00
2022-12-07T01:56:47.744Z,98009.00
2022-12-07T01:56:57.869Z,98009.00
2022-12-07T01:57:07.866Z,98009.00
2022-12-07T01:57:17.989Z,98009.00
2022-12-07T01:57:28.131Z,98007.00
2022-12-07T01:57:38.137Z,98009.00
2022-12-07T01:57:48.148Z,98009.00
2022-12-07T01:57:58.160Z,98011.00